Time;durP1;ratioP1;P1;durP2;ratioP2;P2;SDS_P1;SDS_P2;PMS_P1;PMS_P2;Temp;Humidity;BMP_temperature;BMP_pressure;BME280_temperature;BME280_humidity;BME280_pressure;Samples;Min_cycle;Max_cycle;Signal;HPM_P1;HPM_P2
2023/12/01 14:06:32;;;;;;;17.98;12.20;;;;;;;3.14;nan;97988.56;4971164;28;20226;-77
2023/12/01 14:08:57;;;;;;;32.25;20.38;;;;;;;3.22;nan;97994.13;4988269;28;21043;-77
2023/12/01 14:11:23;;;;;;;30.03;14.20;;;;;;;3.23;nan;97981.03;4989624;28;20695;-80
2023/12/01 14:13:48;;;;;;;22.03;13.30;;;;;;;3.22;nan;97981.97;4989904;28;20210;-78
2023/12/01 14:16:14;;;;;;;22.87;12.00;;;;;;;3.22;nan;97981.16;4990647;28;20305;-80
2023/12/01 14:18:39;;;;;;;21.60;11.53;;;;;;;3.22;nan;97981.97;4991106;28;20207;-82
2023/12/01 14:21:05;;;;;;;23.80;10.70;;;;;;;3.24;nan;97985.31;4989806;28;20615;-76
2023/12/01 14:23:31;;;;;;;23.93;12.73;;;;;;;3.26;nan;97988.63;4988817;28;20214;-80
2023/12/01 14:25:56;;;;;;;25.87;11.57;;;;;;;3.29;nan;97970.31;4991184;28;20456;-78
2023/12/01 14:28:22;;;;;;;18.20;12.67;;;;;;;3.35;nan;97991.59;4989240;28;20676;-78
2023/12/01 14:30:47;;;;;;;20.50;11.60;;;;;;;3.38;nan;97988.84;4990231;28;20195;-80
2023/12/01 14:33:13;;;;;;;20.03;12.00;;;;;;;3.43;nan;97994.56;4984888;28;20823;-77
2023/12/01 14:35:38;;;;;;;23.17;11.93;;;;;;;3.46;nan;97984.84;4978630;28;20763;-79
2023/12/01 14:38:04;;;;;;;23.87;14.00;;;;;;;3.48;nan;97985.59;4981720;28;20218;-82
2023/12/01 14:40:29;;;;;;;17.30;10.60;;;;;;;3.49;nan;97976.88;4980334;28;20625;-82
2023/12/01 14:42:55;;;;;;;20.57;11.90;;;;;;;3.50;nan;97980.31;4984714;28;20542;-79
2023/12/01 14:45:20;;;;;;;17.17;10.50;;;;;;;3.51;nan;97992.34;4985218;28;20210;-82
2023/12/01 14:47:47;;;;;;;20.43;12.40;;;;;;;3.50;nan;97996.69;4991927;28;20477;-79
2023/12/01 14:50:13;;;;;;;24.10;13.70;;;;;;;3.50;nan;97998.47;4988512;28;20759;-77
2023/12/01 14:52:39;;;;;;;19.67;10.60;;;;;;;3.53;nan;98004.31;4990847;28;20222;-82
2023/12/01 14:55:04;;;;;;;23.43;12.97;;;;;;;3.57;nan;98009.34;4990528;28;21068;-77
2023/12/01 14:57:30;;;;;;;27.07;14.50;;;;;;;3.62;nan;98008.13;4990603;28;20203;-78
2023/12/01 14:59:55;;;;;;;20.87;13.33;;;;;;;3.71;nan;97999.75;4987113;28;20886;-82
2023/12/01 15:02:21;;;;;;;17.90;12.00;;;;;;;3.73;nan;98003.09;4990834;28;20237;-77
2023/12/01 15:04:47;;;;;;;19.00;11.10;;;;;;;3.74;nan;98006.53;4985829;28;20278;-77
2023/12/01 15:07:12;;;;;;;20.13;10.80;;;;;;;3.72;nan;97988.44;4991256;28;20545;-82
2023/12/01 15:09:38;;;;;;;25.30;13.67;;;;;;;3.69;nan;97986.03;4986555;28;20238;-79
2023/12/01 15:12:04;;;;;;;21.77;12.57;;;;;;;3.64;nan;97982.88;4986348;28;20198;-79
2023/12/01 15:14:29;;;;;;;17.63;11.57;;;;;;;3.58;nan;97975.47;4986575;28;20870;-82
2023/12/01 15:16:55;;;;;;;27.50;13.87;;;;;;;3.55;nan;97966.09;4987384;28;20191;-77
2023/12/01 15:19:20;;;;;;;26.43;12.40;;;;;;;3.53;nan;97964.53;4984384;28;20204;-81
2023/12/01 15:21:46;;;;;;;18.03;9.87;;;;;;;3.52;nan;97970.66;4984248;28;20822;-82
2023/12/01 15:24:11;;;;;;;19.20;11.20;;;;;;;3.53;nan;97970.56;4985766;28;20237;-81
2023/12/01 15:26:37;;;;;;;22.60;14.10;;;;;;;3.55;nan;97965.28;4987735;28;20457;-79
2023/12/01 15:29:02;;;;;;;23.60;14.30;;;;;;;3.55;nan;97973.06;4985977;28;20203;-82
2023/12/01 15:31:28;;;;;;;22.93;14.97;;;;;;;3.54;nan;97976.59;4983975;28;20245;-77
2023/12/01 15:33:53;;;;;;;21.83;12.97;;;;;;;3.52;nan;97968.91;4981961;28;20214;-81
2023/12/01 15:36:20;;;;;;;23.15;11.52;;;;;;;3.50;nan;97975.13;4986993;28;20296;-81
2023/12/01 15:38:46;;;;;;;37.17;21.10;;;;;;;3.53;nan;97982.72;4984394;28;20444;-78
2023/12/01 15:41:12;;;;;;;28.70;13.68;;;;;;;3.56;nan;97977.31;4983685;28;20268;-77
2023/12/01 15:43:37;;;;;;;25.50;16.20;;;;;;;3.58;nan;97977.25;4987252;28;20203;-82
2023/12/01 15:46:04;;;;;;;27.10;13.90;;;;;;;3.57;nan;97984.19;4986462;28;21058;-78
2023/12/01 15:48:29;;;;;;;25.92;13.95;;;;;;;3.53;nan;97983.53;4983423;28;20203;-81
2023/12/01 15:50:55;;;;;;;21.77;11.77;;;;;;;3.53;nan;97985.31;4988514;28;20198;-82
2023/12/01 15:53:20;;;;;;;24.10;11.40;;;;;;;3.51;nan;97980.22;4982042;28;20702;-79
2023/12/01 15:55:46;;;;;;;24.60;13.80;;;;;;;3.51;nan;97974.16;4983826;28;20211;-82
2023/12/01 15:58:11;;;;;;;22.20;11.37;;;;;;;3.51;nan;97968.97;4988363;28;20539;-81
2023/12/01 16:00:37;;;;;;;27.55;12.63;;;;;;;3.52;nan;97973.25;4992828;28;20229;-78
2023/12/01 16:03:03;;;;;;;15.40;12.63;;;;;;;3.53;nan;97970.56;4995284;28;20237;-78
2023/12/01 16:05:28;;;;;;;21.30;11.47;;;;;;;3.53;nan;97977.50;4987284;28;20187;-78
2023/12/01 16:07:54;;;;;;;19.53;10.97;;;;;;;3.51;nan;97976.78;4990426;28;20210;-78
2023/12/01 16:10:19;;;;;;;24.13;12.13;;;;;;;3.50;nan;97977.72;4991234;28;20199;-77
2023/12/01 16:12:44;;;;;;;27.20;13.67;;;;;;;3.48;nan;97975.22;4986851;28;20214;-78
2023/12/01 16:15:10;;;;;;;23.53;11.73;;;;;;;3.43;nan;97969.47;4986470;28;20269;-77
2023/12/01 16:17:35;;;;;;;26.20;12.60;;;;;;;3.41;nan;97975.69;4986407;28;20286;-78
2023/12/01 16:20:01;;;;;;;18.70;10.90;;;;;;;3.38;nan;97974.09;4985532;28;20211;-77
2023/12/01 16:22:30;;;;;;;18.60;12.07;;;;;;;3.37;nan;97979.38;4983074;28;20210;-76
2023/12/01 16:24:55;;;;;;;30.70;13.07;;;;;;;3.35;nan;97970.84;4981191;28;20268;-78
2023/12/01 16:27:21;;;;;;;18.83;12.67;;;;;;;3.32;nan;97979.66;4986086;28;20207;-78
2023/12/01 16:29:47;;;;;;;21.90;11.70;;;;;;;3.32;nan;97988.28;4984964;28;20567;-78
2023/12/01 16:32:13;;;;;;;21.98;13.43;;;;;;;3.33;nan;97987.34;4985858;28;20290;-78
2023/12/01 16:34:38;;;;;;;29.60;12.40;;;;;;;3.35;nan;97992.47;4979999;28;20312;-78
2023/12/01 16:37:04;;;;;;;20.50;12.10;;;;;;;3.35;nan;97996.78;4988125;28;20207;-78
2023/12/01 16:39:29;;;;;;;26.30;12.93;;;;;;;3.37;nan;97998.38;4984722;28;20203;-78
2023/12/01 16:41:55;;;;;;;34.07;14.50;;;;;;;3.42;nan;97995.50;4986222;28;20257;-78
2023/12/01 16:44:21;;;;;;;19.40;12.07;;;;;;;3.46;nan;97997.00;4986975;28;20216;-77
2023/12/01 16:46:46;;;;;;;26.60;12.67;;;;;;;3.46;nan;98000.44;4986410;28;20511;-78
2023/12/01 16:49:12;;;;;;;21.10;13.73;;;;;;;3.46;nan;97991.81;4983629;28;20191;-78
2023/12/01 16:51:37;;;;;;;29.60;13.87;;;;;;;3.47;nan;97990.88;4985362;28;20778;-78
2023/12/01 16:54:02;;;;;;;22.67;12.70;;;;;;;3.48;nan;98002.91;4988413;28;20215;-78
2023/12/01 16:56:28;;;;;;;22.67;14.40;;;;;;;3.48;nan;97997.72;4983619;28;20203;-78
2023/12/01 16:58:54;;;;;;;24.00;12.37;;;;;;;3.47;nan;97996.91;4982611;28;20206;-78
2023/12/01 17:01:19;;;;;;;23.25;10.77;;;;;;;3.48;nan;97992.53;4983837;28;20252;-78
2023/12/01 17:03:45;;;;;;;20.17;12.50;;;;;;;3.48;nan;97997.72;4985160;28;21693;-78
2023/12/01 17:06:10;;;;;;;28.30;13.07;;;;;;;3.47;nan;97990.88;4987042;28;20223;-78
2023/12/01 17:08:36;;;;;;;22.13;11.37;;;;;;;3.49;nan;97994.22;4986560;28;20277;-78
2023/12/01 17:11:04;;;;;;;26.20;12.90;;;;;;;3.50;nan;98001.06;4983926;28;20191;-79
2023/12/01 17:13:30;;;;;;;26.90;14.43;;;;;;;3.51;nan;97998.41;4985627;28;20207;-79
2023/12/01 17:15:56;;;;;;;20.88;13.15;;;;;;;3.52;nan;98000.06;4983643;28;20573;-79
2023/12/01 17:18:22;;;;;;;19.77;12.67;;;;;;;3.51;nan;97998.41;4989145;28;20206;-79
2023/12/01 17:20:48;;;;;;;29.45;13.68;;;;;;;3.52;nan;97999.22;4996436;28;20613;-79
2023/12/01 17:23:13;;;;;;;28.57;14.40;;;;;;;3.53;nan;97999.13;4995063;28;20706;-78
2023/12/01 17:25:38;;;;;;;21.03;12.97;;;;;;;3.55;nan;98006.81;4988390;28;21365;-78
2023/12/01 17:28:04;;;;;;;23.07;13.70;;;;;;;3.55;nan;98010.25;4987412;28;20406;-78
2023/12/01 17:30:29;;;;;;;28.60;14.80;;;;;;;3.55;nan;97997.25;4984765;28;20218;-78
2023/12/01 17:32:55;;;;;;;22.57;14.37;;;;;;;3.54;nan;97998.19;4987139;28;20192;-77
2023/12/01 17:35:21;;;;;;;23.90;13.90;;;;;;;3.52;nan;98012.19;4986603;28;20195;-78
2023/12/01 17:37:46;;;;;;;26.08;15.40;;;;;;;3.50;nan;98007.09;4986483;28;20443;-79
2023/12/01 17:40:12;;;;;;;21.20;14.97;;;;;;;3.46;nan;98003.03;4991584;28;20195;-78
2023/12/01 17:42:37;;;;;;;31.23;15.57;;;;;;;3.45;nan;98003.94;4989200;28;20483;-78
2023/12/01 17:45:03;;;;;;;26.53;14.10;;;;;;;3.44;nan;98006.63;4985229;28;20222;-78
2023/12/01 17:47:28;;;;;;;25.50;15.20;;;;;;;3.40;nan;98013.75;4986826;28;20213;-77
2023/12/01 17:49:54;;;;;;;27.93;13.03;;;;;;;3.37;nan;98015.72;4983749;28;20191;-78
2023/12/01 17:52:19;;;;;;;24.33;14.13;;;;;;;3.35;nan;98014.97;4989416;28;20202;-77
2023/12/01 17:54:45;;;;;;;28.93;14.93;;;;;;;3.30;nan;98015.25;4990140;28;20297;-77
2023/12/01 17:57:10;;;;;;;23.13;14.17;;;;;;;3.28;nan;98017.94;4987647;28;20211;-77
2023/12/01 17:59:36;;;;;;;26.80;14.43;;;;;;;3.28;nan;98032.66;4989116;28;20207;-78
2023/12/01 18:02:01;;;;;;;23.37;12.73;;;;;;;3.27;nan;98018.88;4988400;28;20466;-77
2023/12/01 18:04:27;;;;;;;23.00;14.00;;;;;;;3.25;nan;98010.31;4988784;28;20246;-77
2023/12/01 18:06:52;;;;;;;25.80;13.70;;;;;;;3.21;nan;98019.22;4993707;28;20842;-77
2023/12/01 18:09:21;;;;;;;31.20;15.97;;;;;;;3.21;nan;98018.38;4991307;28;20230;-77
2023/12/01 18:11:46;;;;;;;23.13;14.95;;;;;;;3.18;nan;98021.16;4995715;28;20203;-79
2023/12/01 18:14:13;;;;;;;28.90;15.27;;;;;;;3.17;nan;98030.72;4996111;28;20944;-78
2023/12/01 18:16:38;;;;;;;24.92;15.07;;;;;;;3.17;nan;98035.91;4995946;28;20282;-81
2023/12/01 18:19:04;;;;;;;24.17;13.33;;;;;;;3.17;nan;98024.69;4995176;28;20254;-79
2023/12/01 18:21:31;;;;;;;22.90;13.83;;;;;;;3.13;nan;98024.00;4993036;28;20206;-79
2023/12/01 18:23:57;;;;;;;26.20;13.68;;;;;;;3.10;nan;98026.78;4994591;28;20466;-78
2023/12/01 18:26:23;;;;;;;28.20;15.55;;;;;;;3.09;nan;98018.19;4999050;28;20237;-79
2023/12/01 18:28:49;;;;;;;26.40;14.97;;;;;;;3.10;nan;98026.78;4996385;28;20238;-78
2023/12/01 18:31:14;;;;;;;32.05;16.25;;;;;;;3.07;nan;98019.19;4994907;28;20199;-78
2023/12/01 18:33:40;;;;;;;33.87;16.00;;;;;;;3.08;nan;98016.53;5004490;28;20767;-79
2023/12/01 18:36:05;;;;;;;22.73;14.10;;;;;;;3.12;nan;98009.38;5004216;28;20207;-79
2023/12/01 18:38:34;;;;;;;25.53;16.20;;;;;;;3.16;nan;98010.03;5008083;28;20203;-77
2023/12/01 18:40:59;;;;;;;19.38;14.25;;;;;;;3.17;nan;98014.31;4991203;28;20196;-79
2023/12/01 18:43:25;;;;;;;18.07;10.13;;;;;;;3.16;nan;98010.03;4995761;28;20211;-79
2023/12/01 18:45:51;;;;;;;23.33;13.30;;;;;;;3.15;nan;98022.16;4997014;28;20314;-79
2023/12/01 18:48:17;;;;;;;26.52;14.38;;;;;;;3.14;nan;98014.50;4999492;28;20546;-79
2023/12/01 18:50:43;;;;;;;24.95;16.33;;;;;;;3.15;nan;98011.78;4998982;28;20199;-78
2023/12/01 18:53:09;;;;;;;31.30;16.80;;;;;;;3.17;nan;98019.50;4990674;28;20297;-79
2023/12/01 18:55:38;;;;;;;27.20;14.77;;;;;;;3.18;nan;98031.53;4996420;28;20210;-78
2023/12/01 18:58:03;;;;;;;22.67;13.52;;;;;;;3.19;nan;98033.22;5000232;28;20222;-78
2023/12/01 19:00:28;;;;;;;28.63;15.23;;;;;;;3.19;nan;98034.06;4997985;28;20199;-79
2023/12/01 19:02:57;;;;;;;34.60;15.80;;;;;;;3.20;nan;98029.69;5000338;28;20233;-78
2023/12/01 19:05:22;;;;;;;26.52;13.50;;;;;;;3.17;nan;98033.31;4993486;28;20751;-77
2023/12/01 19:07:48;;;;;;;23.20;12.30;;;;;;;3.14;nan;98027.47;4997672;28;20230;-78
2023/12/01 19:10:13;;;;;;;27.93;13.90;;;;;;;3.10;nan;98024.19;4994029;28;20226;-78
2023/12/01 19:12:39;;;;;;;18.90;12.23;;;;;;;3.08;nan;98028.66;4994618;28;20438;-78
2023/12/01 19:15:06;;;;;;;25.93;13.93;;;;;;;3.06;nan;98012.34;4994784;28;20684;-80
2023/12/01 19:17:31;;;;;;;27.42;14.57;;;;;;;3.07;nan;98016.59;4996945;28;20306;-80
2023/12/01 19:19:57;;;;;;;20.70;12.00;;;;;;;3.06;nan;98025.31;4992892;28;20824;-77
2023/12/01 19:22:25;;;;;;;24.13;13.70;;;;;;;3.06;nan;98033.94;5002071;28;20203;-79
2023/12/01 19:24:51;;;;;;;23.95;12.45;;;;;;;3.05;nan;98034.00;4998322;28;20211;-78
2023/12/01 19:27:16;;;;;;;25.60;12.70;;;;;;;3.02;nan;98023.81;4998198;28;20226;-77
2023/12/01 19:29:41;;;;;;;30.13;17.77;;;;;;;3.00;nan;98029.09;4987542;28;20226;-78
2023/12/01 19:32:07;;;;;;;23.30;15.47;;;;;;;3.01;nan;98030.75;4997165;28;20195;-78
2023/12/01 19:34:33;;;;;;;23.35;12.15;;;;;;;3.01;nan;98035.13;4995852;28;20203;-79
2023/12/01 19:36:59;;;;;;;31.02;18.73;;;;;;;3.01;nan;98035.94;4995328;28;20446;-79
2023/12/01 19:39:26;;;;;;;27.73;14.97;;;;;;;3.02;nan;98037.59;4997433;28;20195;-79
2023/12/01 19:41:52;;;;;;;35.17;17.23;;;;;;;3.03;nan;98048.84;4997072;28;20222;-79
2023/12/01 19:44:17;;;;;;;28.30;14.23;;;;;;;3.02;nan;98052.34;4996747;28;20673;-79
2023/12/01 19:46:43;;;;;;;23.90;13.80;;;;;;;3.03;nan;98064.41;4998167;28;20188;-79
2023/12/01 19:49:08;;;;;;;22.90;12.97;;;;;;;3.04;nan;98060.88;4992960;28;21295;-79
2023/12/01 19:51:36;;;;;;;29.57;16.43;;;;;;;3.05;nan;98055.63;4995506;28;21022;-78
2023/12/01 19:54:03;;;;;;;27.05;14.73;;;;;;;3.06;nan;98053.84;4995801;28;20199;-78
2023/12/01 19:56:28;;;;;;;23.52;13.90;;;;;;;3.06;nan;98064.22;4993919;28;20198;-77
2023/12/01 19:58:54;;;;;;;22.90;13.37;;;;;;;3.03;nan;98059.22;4993867;28;20257;-77
2023/12/01 20:01:19;;;;;;;21.37;11.60;;;;;;;2.99;nan;98048.16;4994564;28;20485;-78
2023/12/01 20:03:45;;;;;;;24.30;12.50;;;;;;;2.99;nan;98049.94;4998229;28;20230;-78
2023/12/01 20:06:11;;;;;;;27.47;14.37;;;;;;;3.01;nan;98046.31;4996067;28;20238;-78
2023/12/01 20:08:37;;;;;;;35.08;20.88;;;;;;;3.05;nan;98047.84;4994005;28;20489;-78
2023/12/01 20:11:03;;;;;;;29.93;17.50;;;;;;;3.05;nan;98046.97;4995234;28;20218;-78
2023/12/01 20:13:28;;;;;;;31.80;15.40;;;;;;;3.03;nan;98044.47;4996694;28;20297;-78
2023/12/01 20:15:54;;;;;;;30.90;12.57;;;;;;;3.03;nan;98061.81;4997625;28;20203;-78
2023/12/01 20:18:20;;;;;;;25.87;16.13;;;;;;;3.03;nan;98049.66;4992636;28;20210;-77
2023/12/01 20:20:46;;;;;;;21.98;11.85;;;;;;;3.06;nan;98056.44;4993178;28;20191;-78
2023/12/01 20:23:11;;;;;;;24.80;12.43;;;;;;;3.02;nan;98054.94;4994162;28;20219;-78
2023/12/01 20:25:37;;;;;;;30.50;15.50;;;;;;;2.98;nan;98061.25;4993676;28;20209;-78
2023/12/01 20:28:03;;;;;;;30.73;15.67;;;;;;;2.99;nan;98060.31;4991650;28;20493;-79
2023/12/01 20:30:28;;;;;;;25.57;13.60;;;;;;;2.96;nan;98065.66;4994685;28;20203;-77
2023/12/01 20:32:54;;;;;;;26.50;14.07;;;;;;;2.94;nan;98065.75;4990569;28;20203;-78
2023/12/01 20:35:20;;;;;;;29.83;15.17;;;;;;;2.93;nan;98064.09;4989939;28;21383;-78
2023/12/01 20:37:45;;;;;;;24.00;13.50;;;;;;;2.93;nan;98058.91;4990957;28;20179;-79
2023/12/01 20:40:12;;;;;;;32.20;15.33;;;;;;;2.92;nan;98056.38;4990435;28;20228;-79
2023/12/01 20:42:37;;;;;;;29.55;16.60;;;;;;;2.91;nan;98059.91;4991718;28;20220;-78
2023/12/01 20:45:03;;;;;;;21.00;13.10;;;;;;;2.88;nan;98059.16;4989425;28;20957;-79
2023/12/01 20:47:29;;;;;;;23.48;12.23;;;;;;;2.86;nan;98053.25;4994611;28;20195;-78
2023/12/01 20:49:54;;;;;;;20.23;12.17;;;;;;;2.88;nan;98055.72;4983384;28;21008;-79
2023/12/01 20:52:20;;;;;;;24.93;13.90;;;;;;;2.91;nan;98052.97;4991787;28;20325;-78
2023/12/01 20:54:46;;;;;;;25.03;14.50;;;;;;;2.92;nan;98056.38;4988507;28;20336;-79
2023/12/01 20:57:11;;;;;;;28.97;16.13;;;;;;;2.91;nan;98060.75;4989844;28;20461;-79
2023/12/01 20:59:39;;;;;;;28.37;15.23;;;;;;;2.92;nan;98058.97;4990821;28;20206;-79
2023/12/01 21:02:06;;;;;;;20.25;12.52;;;;;;;2.93;nan;98060.66;4990168;28;20195;-79
2023/12/01 21:04:32;;;;;;;24.15;12.85;;;;;;;2.93;nan;98050.28;5004812;28;20224;-79
2023/12/01 21:06:58;;;;;;;29.93;13.20;;;;;;;2.92;nan;98056.38;4990395;28;20232;-78
2023/12/01 21:09:24;;;;;;;26.70;12.95;;;;;;;2.92;nan;98052.06;4989819;28;20553;-78
2023/12/01 21:11:49;;;;;;;27.10;14.70;;;;;;;2.94;nan;98046.75;4990520;28;20207;-78
2023/12/01 21:14:15;;;;;;;22.87;11.67;;;;;;;2.98;nan;98053.47;4988771;28;20298;-78
2023/12/01 21:16:41;;;;;;;32.63;15.33;;;;;;;2.96;nan;98055.28;4993088;28;20195;-79
2023/12/01 21:19:07;;;;;;;23.45;16.17;;;;;;;2.98;nan;98051.69;4991034;28;20285;-79
2023/12/01 21:21:33;;;;;;;20.15;10.88;;;;;;;2.99;nan;98042.16;4989232;28;20226;-78
2023/12/01 21:23:59;;;;;;;33.72;13.65;;;;;;;2.99;nan;98039.56;4989472;28;20342;-78
2023/12/01 21:26:27;;;;;;;28.47;14.00;;;;;;;2.98;nan;98046.50;4992011;28;20293;-78
2023/12/01 21:28:55;;;;;;;21.48;11.98;;;;;;;2.99;nan;98053.34;4991053;28;20462;-78
2023/12/01 21:31:21;;;;;;;28.65;15.57;;;;;;;3.03;nan;98054.03;4990953;28;20283;-78
2023/12/01 21:33:47;;;;;;;30.93;16.23;;;;;;;3.06;nan;98048.66;4988308;28;20207;-79
2023/12/01 21:36:13;;;;;;;33.07;16.03;;;;;;;3.12;nan;98050.88;4993240;28;20210;-78
2023/12/01 21:38:39;;;;;;;33.55;20.20;;;;;;;3.15;nan;98040.34;4990624;28;20447;-79
2023/12/01 21:41:04;;;;;;;29.47;16.27;;;;;;;3.17;nan;98040.25;4996792;28;20211;-79
2023/12/01 21:43:30;;;;;;;38.00;17.87;;;;;;;3.19;nan;98033.22;5002322;28;20774;-79
2023/12/01 21:45:56;;;;;;;29.80;16.37;;;;;;;3.20;nan;98034.88;5000462;28;20191;-78
2023/12/01 21:48:21;;;;;;;30.30;16.10;;;;;;;3.21;nan;98033.94;4992516;28;20217;-77
2023/12/01 21:50:47;;;;;;;25.40;15.20;;;;;;;3.21;nan;98036.53;4992518;28;20203;-77
2023/12/01 21:53:12;;;;;;;26.53;13.33;;;;;;;3.20;nan;98035.72;4993724;28;20218;-77
2023/12/01 21:55:38;;;;;;;28.13;14.30;;;;;;;3.18;nan;98040.16;4992429;28;20199;-77
2023/12/01 21:58:03;;;;;;;27.60;16.13;;;;;;;3.15;nan;98032.53;4990624;28;20215;-78
2023/12/01 22:00:29;;;;;;;22.20;12.83;;;;;;;3.16;nan;98039.44;4991330;28;20213;-78
2023/12/01 22:02:55;;;;;;;22.40;13.40;;;;;;;3.14;nan;98030.06;4990282;28;20208;-78
2023/12/01 22:05:20;;;;;;;27.70;12.63;;;;;;;3.10;nan;98035.41;4989888;28;20241;-77
2023/12/01 22:07:46;;;;;;;23.57;13.60;;;;;;;3.08;nan;98036.44;4991148;28;21028;-78
2023/12/01 22:10:12;;;;;;;25.83;14.37;;;;;;;3.10;nan;98034.56;4990370;28;20306;-77
2023/12/01 22:12:37;;;;;;;27.53;13.93;;;;;;;3.12;nan;98040.50;4989574;28;20294;-78
2023/12/01 22:15:03;;;;;;;27.90;15.97;;;;;;;3.09;nan;98054.50;4999984;28;20256;-78
2023/12/01 22:17:29;;;;;;;27.83;13.27;;;;;;;3.07;nan;98063.28;5002557;28;20205;-77
2023/12/01 22:19:54;;;;;;;31.47;15.00;;;;;;;3.07;nan;98071.06;5004243;28;20203;-78
2023/12/01 22:22:20;;;;;;;32.37;14.47;;;;;;;3.07;nan;98086.63;4988356;28;20677;-78
2023/12/01 22:24:47;;;;;;;24.40;13.00;;;;;;;3.07;nan;98089.22;4989942;28;20210;-78
2023/12/01 22:27:13;;;;;;;21.02;13.25;;;;;;;3.06;nan;98096.19;4989825;28;20234;-78
2023/12/01 22:29:38;;;;;;;35.30;14.60;;;;;;;3.08;nan;98101.28;4989317;28;20580;-78
2023/12/01 22:32:04;;;;;;;30.50;14.17;;;;;;;3.09;nan;98097.78;4988905;28;20214;-78
2023/12/01 22:34:29;;;;;;;29.73;12.67;;;;;;;3.07;nan;98099.59;4992213;28;20207;-78
2023/12/01 22:36:55;;;;;;;20.37;12.83;;;;;;;3.03;nan;98103.31;4988925;28;20548;-78
2023/12/01 22:39:21;;;;;;;21.63;10.20;;;;;;;2.99;nan;98104.41;4991334;28;20479;-78
2023/12/01 22:41:48;;;;;;;25.40;14.40;;;;;;;2.95;nan;98101.16;4990705;28;20230;-78
2023/12/01 22:44:14;;;;;;;26.52;15.57;;;;;;;2.90;nan;98102.34;4988662;28;20644;-79
2023/12/01 22:46:39;;;;;;;20.73;13.10;;;;;;;2.86;nan;98101.66;4991923;28;20286;-78
2023/12/01 22:49:06;;;;;;;32.70;15.70;;;;;;;2.85;nan;98111.19;4990736;28;20285;-78
2023/12/01 22:51:32;;;;;;;21.05;11.68;;;;;;;2.79;nan;98111.56;4987345;28;20199;-78
2023/12/01 22:53:57;;;;;;;25.33;11.83;;;;;;;2.81;nan;98094.16;4989723;28;20345;-78
2023/12/01 22:56:23;;;;;;;24.00;12.07;;;;;;;2.82;nan;98093.22;4988958;28;20210;-78
2023/12/01 22:58:48;;;;;;;27.37;14.43;;;;;;;2.85;nan;98090.44;4989326;28;20195;-78
2023/12/01 23:01:13;;;;;;;19.57;13.60;;;;;;;2.85;nan;98089.63;4988350;28;20199;-78
2023/12/01 23:03:39;;;;;;;24.80;13.20;;;;;;;2.86;nan;98084.38;4991864;28;21129;-78
2023/12/01 23:06:05;;;;;;;29.83;14.87;;;;;;;2.83;nan;98068.94;4988966;28;20603;-78
2023/12/01 23:08:30;;;;;;;27.87;17.00;;;;;;;2.82;nan;98080.25;4990427;28;20190;-79
2023/12/01 23:10:55;;;;;;;26.57;14.87;;;;;;;2.84;nan;98095.75;4994667;28;20847;-78
2023/12/01 23:13:21;;;;;;;18.70;8.77;;;;;;;2.83;nan;98100.06;4992206;28;20206;-78
2023/12/01 23:15:46;;;;;;;20.70;12.00;;;;;;;2.85;nan;98100.81;4994502;28;20313;-78
2023/12/01 23:18:12;;;;;;;18.33;13.30;;;;;;;2.85;nan;98098.22;4993229;28;20207;-78
2023/12/01 23:20:37;;;;;;;23.53;11.90;;;;;;;2.86;nan;98093.88;4990707;28;20520;-78
2023/12/01 23:23:03;;;;;;;26.90;13.43;;;;;;;2.86;nan;98094.75;4992407;28;21156;-78
2023/12/01 23:25:28;;;;;;;27.40;12.87;;;;;;;2.86;nan;98110.28;4991707;28;20401;-78
2023/12/01 23:27:54;;;;;;;25.80;13.10;;;;;;;2.89;nan;98098.91;4992549;28;20183;-78
2023/12/01 23:30:21;;;;;;;25.10;13.03;;;;;;;2.91;nan;98078.06;4993910;28;20203;-78
2023/12/01 23:32:49;;;;;;;24.42;14.70;;;;;;;2.91;nan;98075.47;4992708;28;20211;-80
2023/12/01 23:35:15;;;;;;;27.02;14.63;;;;;;;2.91;nan;98080.66;4994134;28;20195;-80
2023/12/01 23:37:41;;;;;;;27.55;16.35;;;;;;;2.91;nan;98083.25;4995400;28;21258;-80
2023/12/01 23:40:07;;;;;;;24.10;13.90;;;;;;;2.92;nan;98078.00;5002929;28;20207;-80
2023/12/01 23:42:33;;;;;;;26.63;13.93;;;;;;;2.93;nan;98079.66;5004725;28;20290;-80
2023/12/01 23:44:58;;;;;;;23.15;12.75;;;;;;;2.90;nan;98081.59;5002717;28;20522;-80
2023/12/01 23:47:24;;;;;;;20.80;12.37;;;;;;;2.85;nan;98064.53;5003168;28;20203;-81
2023/12/01 23:49:49;;;;;;;32.80;13.40;;;;;;;2.82;nan;98062.09;4993564;28;20202;-81
2023/12/01 23:52:15;;;;;;;30.87;15.07;;;;;;;2.80;nan;98068.31;4993026;28;20367;-81
2023/12/01 23:54:40;;;;;;;22.53;12.07;;;;;;;2.78;nan;98076.19;4994511;28;20224;-81
2023/12/01 23:57:06;;;;;;;22.13;12.40;;;;;;;2.76;nan;98069.41;4993520;28;20202;-81
2023/12/01 23:59:31;;;;;;;30.30;12.30;;;;;;;2.77;nan;98065.88;4994468;28;20226;-80
